Time;durP1;ratioP1;P1;durP2;ratioP2;P2;SDS_P1;SDS_P2;PMS_P1;PMS_P2;Temp;Humidity;BMP_temperature;BMP_pressure;BME280_temperature;BME280_humidity;BME280_pressure;Samples;Min_cycle;Max_cycle;Signal;HPM_P1;HPM_P2
2020/12/14 00:00:24;;;;;;;59.17;28.95;;;179.60;2252.80;;;;;;5074571;28;20052;-64
2020/12/14 00:02:49;;;;;;;55.80;28.20;;;179.50;2252.80;;;;;;5074729;28;20109;-64
2020/12/14 00:05:16;;;;;;;49.00;26.35;;;179.60;2252.80;;;;;;5073791;28;20068;-64
2020/12/14 00:07:42;;;;;;;45.83;25.60;;;179.40;2252.80;;;;;;5072833;28;20496;-67
2020/12/14 00:10:08;;;;;;;51.45;26.60;;;179.50;2252.80;;;;;;5069527;28;20028;-74
2020/12/14 00:12:34;;;;;;;53.80;29.17;;;179.60;2252.80;;;;;;5056256;28;20029;-69
2020/12/14 00:15:00;;;;;;;47.85;26.52;;;179.50;2252.80;;;;;;5072865;28;20058;-66
2020/12/14 00:17:26;;;;;;;49.38;26.27;;;179.60;2252.80;;;;;;5071966;28;20025;-69
2020/12/14 00:19:52;;;;;;;46.42;24.85;;;179.50;2252.80;;;;;;5072438;28;20024;-66
2020/12/14 00:22:18;;;;;;;35.28;20.90;;;179.60;2252.80;;;;;;5069991;28;20089;-62
2020/12/14 00:24:43;;;;;;;45.40;23.98;;;179.30;2252.80;;;;;;5072039;28;20437;-67
2020/12/14 00:27:09;;;;;;;38.90;22.98;;;154.50;2252.80;;;;;;5069014;28;20070;-68
2020/12/14 00:29:35;;;;;;;38.30;20.02;;;179.40;2252.80;;;;;;5071684;28;20048;-66
2020/12/14 00:32:00;;;;;;;39.00;20.45;;;179.50;2252.80;;;;;;5071822;28;20131;-65
2020/12/14 00:34:26;;;;;;;38.83;20.55;;;179.30;2252.80;;;;;;5072802;28;20039;-69
2020/12/14 00:36:52;;;;;;;38.78;20.13;;;179.50;2252.80;;;;;;5072487;28;20028;-66
2020/12/14 00:39:17;;;;;;;35.35;20.30;;;179.40;2252.80;;;;;;5071850;28;20024;-72
2020/12/14 00:41:43;;;;;;;39.90;21.45;;;179.60;2252.80;;;;;;5072167;28;20024;-72
2020/12/14 00:44:09;;;;;;;35.83;21.52;;;179.60;2252.80;;;;;;5072331;28;20032;-68
2020/12/14 00:46:35;;;;;;;37.47;21.67;;;179.80;2252.80;;;;;;5072085;28;20052;-68
2020/12/14 00:49:01;;;;;;;38.85;21.20;;;179.80;2227.20;;;;;;5073549;28;20367;-71
2020/12/14 00:51:28;;;;;;;40.45;21.45;;;179.80;2227.20;;;;;;5073217;28;20045;-70
2020/12/14 00:53:55;;;;;;;38.35;20.27;;;180.00;2227.20;;;;;;5073654;28;20074;-66
2020/12/14 00:56:21;;;;;;;40.47;22.02;;;179.80;2201.60;;;;;;5073626;28;20039;-66
2020/12/14 00:58:46;;;;;;;37.28;19.73;;;180.10;2176.00;;;;;;5073747;28;20016;-66
2020/12/14 01:01:17;;;;;;;35.40;20.58;;;180.00;2176.00;;;;;;5073076;28;20077;-66
2020/12/14 01:03:42;;;;;;;36.88;20.73;;;180.10;2150.40;;;;;;5073518;28;20044;-66
2020/12/14 01:06:08;;;;;;;34.45;19.63;;;180.00;2176.00;;;;;;5073265;28;20036;-66
2020/12/14 01:08:34;;;;;;;32.10;19.17;;;204.80;2150.40;;;;;;5073466;28;20020;-65
2020/12/14 01:11:01;;;;;;;32.53;18.80;;;179.80;2176.00;;;;;;5073056;28;20071;-66
2020/12/14 01:13:27;;;;;;;35.17;20.52;;;179.70;2176.00;;;;;;5073242;28;20351;-65
2020/12/14 01:15:53;;;;;;;38.25;18.95;;;179.50;2227.20;;;;;;5073095;28;20020;-66
2020/12/14 01:18:19;;;;;;;33.70;18.70;;;179.30;2252.80;;;;;;5072961;28;20025;-66
2020/12/14 01:20:46;;;;;;;32.08;18.42;;;179.60;2227.20;;;;;;5055314;28;20058;-61
2020/12/14 01:23:12;;;;;;;34.20;20.33;;;179.70;2201.60;;;;;;5073581;28;20467;-61
2020/12/14 01:25:38;;;;;;;37.08;20.52;;;179.60;2227.20;;;;;;5073792;28;20432;-60
2020/12/14 01:28:06;;;;;;;35.03;19.73;;;179.40;2201.60;;;;;;5073434;28;20024;-61
2020/12/14 01:30:35;;;;;;;35.07;20.40;;;179.60;2227.20;;;;;;5073221;28;20044;-61
2020/12/14 01:33:01;;;;;;;;;;;179.70;2227.20;;;;;;5073891;28;20253;-61
2020/12/14 01:35:27;;;;;;;37.03;20.52;;;179.60;2227.20;;;;;;5073325;28;20259;-61
2020/12/14 01:37:54;;;;;;;34.60;20.55;;;179.70;2252.80;;;;;;5073178;28;20081;-60
2020/12/14 01:40:20;;;;;;;34.10;20.58;;;179.80;2227.20;;;;;;5072866;28;20017;-60
2020/12/14 01:42:48;;;;;;;36.85;22.10;;;179.70;2201.60;;;;;;5072770;28;20032;-64
2020/12/14 01:45:18;;;;;;;33.50;19.65;;;179.40;2252.80;;;;;;5073159;28;20063;-61
2020/12/14 01:47:47;;;;;;;34.28;19.90;;;179.50;2227.20;;;;;;5072750;28;20391;-61
2020/12/14 01:50:14;;;;;;;33.33;18.92;;;179.60;2252.80;;;;;;5072512;28;20035;-62
2020/12/14 01:52:41;;;;;;;35.85;19.48;;;179.80;2201.60;;;;;;5072452;28;20584;-65
2020/12/14 01:55:10;;;;;;;36.60;19.58;;;179.90;2201.60;;;;;;5072391;28;20020;-65
2020/12/14 01:57:39;;;;;;;34.73;20.17;;;180.00;2201.60;;;;;;5072370;28;20092;-65
2020/12/14 02:00:09;;;;;;;35.70;20.65;;;180.10;2176.00;;;;;;5071863;28;20012;-62
2020/12/14 02:02:35;;;;;;;38.63;21.02;;;179.90;2150.40;;;;;;5072383;28;20036;-65
2020/12/14 02:05:02;;;;;;;36.90;21.52;;;180.00;2201.60;;;;;;5072141;28;21335;-61
2020/12/14 02:07:28;;;;;;;36.10;19.90;;;179.70;2201.60;;;;;;5071010;28;20151;-63
2020/12/14 02:09:54;;;;;;;38.67;21.70;;;179.30;2252.80;;;;;;5070935;28;20548;-63
2020/12/14 02:12:25;;;;;;;36.90;19.70;;;154.50;2252.80;;;;;;5071584;28;20466;-60
2020/12/14 02:14:55;;;;;;;37.78;19.45;;;179.20;2252.80;;;;;;5071787;28;20025;-63
2020/12/14 02:17:23;;;;;;;38.30;21.58;;;179.30;2252.80;;;;;;5071592;28;20026;-63
2020/12/14 02:19:50;;;;;;;32.45;19.85;;;154.40;2252.80;;;;;;5069503;28;20021;-64
2020/12/14 02:22:20;;;;;;;37.13;20.13;;;179.20;2252.80;;;;;;5071752;28;20020;-63
2020/12/14 02:24:57;;;;;;;36.60;21.02;;;179.30;2252.80;;;;;;5071317;28;20375;-63
2020/12/14 02:27:24;;;;;;;36.25;21.08;;;154.50;2252.80;;;;;;5071567;28;20016;-63
2020/12/14 02:29:50;;;;;;;36.10;20.98;;;179.30;2252.80;;;;;;5071691;28;20013;-64
2020/12/14 02:32:17;;;;;;;34.83;20.15;;;179.40;2252.80;;;;;;5072009;28;20568;-64
2020/12/14 02:34:44;;;;;;;40.95;21.65;;;179.40;2252.80;;;;;;5071726;28;20369;-64
2020/12/14 02:37:11;;;;;;;40.50;21.02;;;179.60;2252.80;;;;;;5070594;28;20024;-64
2020/12/14 02:39:37;;;;;;;38.80;21.55;;;179.70;2227.20;;;;;;5072037;28;20035;-63
2020/12/14 02:42:11;;;;;;;36.10;20.83;;;179.80;2227.20;;;;;;5071453;28;20060;-65
2020/12/14 02:44:37;;;;;;;40.92;20.73;;;179.50;2227.20;;;;;;5067578;28;20036;-64
2020/12/14 02:47:03;;;;;;;41.15;22.42;;;179.30;2252.80;;;;;;5072234;28;20024;-64
2020/12/14 02:49:30;;;;;;;40.55;22.70;;;179.40;2252.80;;;;;;5072299;28;20500;-65
2020/12/14 02:51:55;;;;;;;45.58;23.77;;;154.40;2252.80;;;;;;5072760;28;20089;-64
2020/12/14 02:54:22;;;;;;;43.97;22.85;;;154.50;2252.80;;;;;;5076542;28;20020;-63
2020/12/14 02:56:48;;;;;;;41.75;23.00;;;179.30;2252.80;;;;;;5058311;28;20055;-63
2020/12/14 02:59:14;;;;;;;36.30;21.50;;;154.20;2252.80;;;;;;5076474;28;20475;-65
2020/12/14 03:01:40;;;;;;;39.38;20.73;;;154.40;2252.80;;;;;;5075975;28;20490;-64
2020/12/14 03:04:06;;;;;;;40.95;22.15;;;154.30;2252.80;;;;;;5075870;28;20020;-64
2020/12/14 03:06:33;;;;;;;38.30;21.10;;;154.30;2252.80;;;;;;5076094;28;20086;-64
2020/12/14 03:08:59;;;;;;;41.90;21.15;;;154.30;2252.80;;;;;;5076218;28;20051;-63
2020/12/14 03:11:25;;;;;;;42.03;22.00;;;179.20;2252.80;;;;;;5075820;28;20490;-64
2020/12/14 03:13:51;;;;;;;41.17;21.90;;;154.30;2252.80;;;;;;5075915;28;20023;-63
2020/12/14 03:16:19;;;;;;;45.42;24.38;;;154.00;2252.80;;;;;;5075827;28;20041;-64
2020/12/14 03:18:45;;;;;;;44.38;23.25;;;153.90;2252.80;;;;;;5076078;28;20043;-64
2020/12/14 03:21:11;;;;;;;43.67;22.77;;;153.70;2252.80;;;;;;5075047;28;20421;-64
2020/12/14 03:23:37;;;;;;;44.20;22.95;;;153.60;2252.80;;;;;;5075663;28;20017;-63
2020/12/14 03:26:03;;;;;;;41.97;22.15;;;153.80;2252.80;;;;;;5075680;28;20025;-63
2020/12/14 03:28:28;;;;;;;44.95;23.15;;;153.90;2252.80;;;;;;5075908;28;20031;-64
2020/12/14 03:30:54;;;;;;;38.85;20.75;;;153.80;2252.80;;;;;;5075423;28;20079;-65
2020/12/14 03:33:20;;;;;;;40.28;20.83;;;154.00;2252.80;;;;;;5074295;28;20021;-63
2020/12/14 03:35:47;;;;;;;41.15;22.75;;;154.00;2252.80;;;;;;5075658;28;20024;-63
2020/12/14 03:38:13;;;;;;;38.08;21.75;;;154.00;2252.80;;;;;;5057618;28;20024;-63
2020/12/14 03:40:40;;;;;;;38.90;21.50;;;153.70;2252.80;;;;;;5075484;28;20424;-63
2020/12/14 03:43:05;;;;;;;40.50;22.58;;;153.70;2252.80;;;;;;5075496;28;20040;-63
2020/12/14 03:45:31;;;;;;;42.55;23.27;;;153.90;2252.80;;;;;;5075281;28;20021;-64
2020/12/14 03:47:56;;;;;;;35.90;19.88;;;154.10;2252.80;;;;;;5075383;28;20078;-64
2020/12/14 03:50:22;;;;;;;37.90;21.08;;;154.30;2252.80;;;;;;5075124;28;20039;-64
2020/12/14 03:52:48;;;;;;;33.85;18.85;;;154.40;2201.60;;;;;;5075341;28;20025;-63
2020/12/14 03:55:13;;;;;;;30.90;17.45;;;179.20;2176.00;;;;;;5075043;28;20017;-64
2020/12/14 03:57:39;;;;;;;35.17;18.58;;;179.20;2176.00;;;;;;5075311;28;20044;-64
2020/12/14 04:00:05;;;;;;;36.17;18.10;;;179.30;2150.40;;;;;;5075189;28;20383;-63
2020/12/14 04:02:31;;;;;;;33.40;17.27;;;179.20;2150.40;;;;;;5074985;28;20023;-62
2020/12/14 04:04:56;;;;;;;29.83;16.60;;;179.30;2099.20;;;;;;5074780;28;20372;-62
2020/12/14 04:07:22;;;;;;;32.70;17.77;;;179.30;2099.20;;;;;;5074733;28;20129;-63
2020/12/14 04:09:48;;;;;;;31.90;17.42;;;179.50;2073.60;;;;;;5075421;28;20020;-63
2020/12/14 04:12:13;;;;;;;28.30;16.88;;;179.30;2099.20;;;;;;5074536;28;20060;-63
2020/12/14 04:14:39;;;;;;;32.13;17.13;;;179.30;2099.20;;;;;;5075054;28;20020;-63
2020/12/14 04:17:05;;;;;;;32.20;16.52;;;154.50;2099.20;;;;;;5074622;28;20370;-64
2020/12/14 04:19:31;;;;;;;33.33;16.25;;;154.40;2124.80;;;;;;5074936;28;20459;-63
2020/12/14 04:22:00;;;;;;;30.50;16.25;;;154.30;2150.40;;;;;;5074786;28;20120;-63
2020/12/14 04:24:26;;;;;;;30.48;15.50;;;154.40;2124.80;;;;;;5074453;28;20021;-63
2020/12/14 04:26:55;;;;;;;28.95;16.27;;;179.20;2099.20;;;;;;5074937;28;20028;-63
2020/12/14 04:29:21;;;;;;;;;;;179.30;2099.20;;;;;;5075366;28;20493;-66
2020/12/14 04:31:49;;;;;;;31.80;15.68;;;179.30;2073.60;;;;;;5074847;28;19916;-64
2020/12/14 04:34:14;;;;;;;31.15;16.30;;;179.20;2099.20;;;;;;5074478;28;20032;-66
2020/12/14 04:36:44;;;;;;;26.45;15.68;;;154.50;2099.20;;;;;;5074473;28;20082;-64
2020/12/14 04:39:10;;;;;;;31.45;16.35;;;154.40;2124.80;;;;;;5073197;28;20035;-64
2020/12/14 04:41:35;;;;;;;28.23;14.73;;;154.50;2099.20;;;;;;5074363;28;20025;-64
2020/12/14 04:44:01;;;;;;;31.92;17.05;;;154.30;2124.80;;;;;;5074178;28;20513;-65
2020/12/14 04:46:29;;;;;;;31.45;16.75;;;154.50;2099.20;;;;;;5074196;28;20371;-64
2020/12/14 04:48:55;;;;;;;28.63;14.75;;;154.40;2099.20;;;;;;5074516;28;20013;-64
2020/12/14 04:51:22;;;;;;;27.23;15.18;;;179.20;2099.20;;;;;;5074157;28;20047;-64
2020/12/14 04:53:47;;;;;;;26.58;15.13;;;154.00;2150.40;;;;;;5074354;28;20017;-65
2020/12/14 04:56:26;;;;;;;29.02;15.57;;;154.30;2150.40;;;;;;5074082;28;20028;-64
2020/12/14 04:58:52;;;;;;;31.42;16.42;;;154.30;2124.80;;;;;;5062033;28;20024;-64
2020/12/14 05:01:18;;;;;;;31.30;17.83;;;154.30;2124.80;;;;;;5074026;28;20032;-64
2020/12/14 05:03:43;;;;;;;27.20;15.40;;;154.20;2150.40;;;;;;5073671;28;20027;-65
2020/12/14 05:06:09;;;;;;;31.85;17.70;;;154.20;2150.40;;;;;;5072488;28;20494;-65
2020/12/14 05:08:35;;;;;;;28.45;16.30;;;154.30;2124.80;;;;;;5073923;28;20021;-64
2020/12/14 05:11:00;;;;;;;28.00;15.27;;;154.40;2150.40;;;;;;5073696;28;20494;-64
2020/12/14 05:13:27;;;;;;;32.03;16.63;;;154.40;2150.40;;;;;;5073604;28;20086;-63
2020/12/14 05:15:53;;;;;;;27.27;15.60;;;154.40;2124.80;;;;;;5072826;28;20062;-63
2020/12/14 05:18:23;;;;;;;33.95;16.85;;;154.20;2150.40;;;;;;5073806;28;20029;-64
2020/12/14 05:21:05;;;;;;;32.70;17.48;;;153.90;2201.60;;;;;;5074157;28;20032;-64
2020/12/14 05:23:32;;;;;;;32.92;17.85;;;154.10;2176.00;;;;;;5060172;28;20098;-63
2020/12/14 05:26:07;;;;;;;32.40;18.17;;;154.00;2201.60;;;;;;5055547;28;20025;-63
2020/12/14 05:28:33;;;;;;;34.25;17.45;;;153.90;2201.60;;;;;;5059767;28;20021;-64
2020/12/14 05:30:59;;;;;;;31.85;18.27;;;153.80;2227.20;;;;;;5073414;28;20105;-65
2020/12/14 05:33:30;;;;;;;35.80;19.30;;;153.60;2252.80;;;;;;5073135;28;20024;-64
2020/12/14 05:35:56;;;;;;;28.73;16.45;;;153.90;2201.60;;;;;;5073491;28;20079;-63
2020/12/14 05:38:23;;;;;;;33.33;17.40;;;154.10;2176.00;;;;;;5073267;28;20017;-63
2020/12/14 05:40:50;;;;;;;30.80;17.58;;;154.10;2176.00;;;;;;5072943;28;20024;-63
2020/12/14 05:43:21;;;;;;;35.15;18.80;;;154.40;2150.40;;;;;;5073279;28;20035;-63
2020/12/14 05:45:50;;;;;;;31.05;18.30;;;154.40;2150.40;;;;;;5055321;28;20059;-62
2020/12/14 05:48:32;;;;;;;30.73;17.83;;;154.10;2176.00;;;;;;5072683;28;20028;-63
2020/12/14 05:51:03;;;;;;;32.15;17.95;;;154.20;2150.40;;;;;;5061348;28;20475;-63
2020/12/14 05:53:35;;;;;;;32.80;16.90;;;154.10;2201.60;;;;;;5073032;28;20027;-62
2020/12/14 05:56:02;;;;;;;28.60;17.35;;;154.10;2150.40;;;;;;5072954;28;20023;-62
2020/12/14 05:58:30;;;;;;;31.77;17.10;;;154.20;2150.40;;;;;;5073393;28;20520;-62
2020/12/14 06:00:56;;;;;;;30.88;16.65;;;154.30;2124.80;;;;;;5073181;28;20027;-62
2020/12/14 06:03:23;;;;;;;33.03;17.85;;;154.30;2124.80;;;;;;5072913;28;20036;-62
2020/12/14 06:05:58;;;;;;;33.75;18.40;;;154.40;2124.80;;;;;;5072380;28;20059;-63
2020/12/14 06:09:01;;;;;;;33.70;18.35;;;154.20;2150.40;;;;;;5072955;28;20028;-63
2020/12/14 06:11:26;;;;;;;50.70;36.85;;;154.30;2150.40;;;;;;5072644;28;20032;-63
2020/12/14 06:13:55;;;;;;;33.25;18.85;;;154.10;2150.40;;;;;;5072823;28;20467;-63
2020/12/14 06:16:29;;;;;;;36.95;19.27;;;154.00;2176.00;;;;;;5058630;28;20069;-61
2020/12/14 06:18:56;;;;;;;31.02;17.42;;;154.10;2150.40;;;;;;5072754;28;20028;-62
2020/12/14 06:21:28;;;;;;;32.40;18.08;;;154.20;2150.40;;;;;;5072494;28;20441;-62
2020/12/14 06:23:55;;;;;;;28.45;17.00;;;154.30;2150.40;;;;;;5072729;28;20028;-60
2020/12/14 06:26:24;;;;;;;30.13;19.55;;;154.30;2150.40;;;;;;5071836;28;20359;-62
2020/12/14 06:28:54;;;;;;;27.40;15.75;;;154.10;2150.40;;;;;;5072731;28;20033;-62
2020/12/14 06:31:36;;;;;;;37.63;23.58;;;154.30;2150.40;;;;;;5072278;28;20143;-62
2020/12/14 06:34:25;;;;;;;28.00;17.13;;;154.30;2150.40;;;;;;5072515;28;20465;-62
2020/12/14 06:36:51;;;;;;;30.13;17.45;;;154.40;2124.80;;;;;;5072169;28;20016;-62
2020/12/14 06:39:26;;;;;;;30.45;18.80;;;154.40;2150.40;;;;;;5072543;28;20036;-62
2020/12/14 06:42:01;;;;;;;29.30;17.10;;;154.30;2150.40;;;;;;5072448;28;20103;-62
2020/12/14 06:44:27;;;;;;;29.88;17.38;;;154.20;2150.40;;;;;;5072572;28;20020;-62
2020/12/14 06:46:53;;;;;;;28.60;16.48;;;154.20;2150.40;;;;;;5071907;28;20123;-62
2020/12/14 06:49:31;;;;;;;224.98;204.07;;;154.30;2124.80;;;;;;5072386;28;20158;-62
2020/12/14 06:51:57;;;;;;;57.13;51.08;;;154.20;2150.40;;;;;;5072097;28;20043;-62
2020/12/14 06:54:45;;;;;;;29.98;16.60;;;154.40;2099.20;;;;;;5072376;28;20332;-63
2020/12/14 06:57:17;;;;;;;25.52;15.95;;;154.40;2099.20;;;;;;5058271;28;20021;-62
2020/12/14 06:59:53;;;;;;;22.33;14.60;;;154.10;2124.80;;;;;;5072106;28;20020;-62
2020/12/14 07:02:33;;;;;;;25.23;15.85;;;154.30;2099.20;;;;;;5070568;28;20020;-63
2020/12/14 07:04:59;;;;;;;25.63;15.13;;;154.40;2073.60;;;;;;5072028;28;20446;-63
2020/12/14 07:07:28;;;;;;;24.50;14.93;;;154.40;2099.20;;;;;;5072034;28;20352;-62
2020/12/14 07:10:11;;;;;;;27.30;16.05;;;154.40;2099.20;;;;;;5072068;28;20379;-62
2020/12/14 07:12:41;;;;;;;26.17;15.00;;;179.20;2073.60;;;;;;5071861;28;20029;-63
2020/12/14 07:15:07;;;;;;;23.35;14.55;;;179.30;2048.00;;;;;;5071859;28;20012;-63
2020/12/14 07:17:32;;;;;;;24.80;14.90;;;179.30;2022.40;;;;;;5071693;28;20019;-62
2020/12/14 07:19:59;;;;;;;23.70;15.00;;;154.40;2048.00;;;;;;5071940;28;20024;-63
2020/12/14 07:22:34;;;;;;;26.50;16.15;;;179.40;2022.40;;;;;;5071735;28;20020;-65
2020/12/14 07:25:00;;;;;;;33.78;23.10;;;179.50;2022.40;;;;;;5072096;28;20085;-63
2020/12/14 07:27:27;;;;;;;25.52;16.20;;;179.20;2048.00;;;;;;5071660;28;20483;-62
2020/12/14 07:30:13;;;;;;;34.60;21.88;;;179.30;2022.40;;;;;;5071659;28;20371;-62
2020/12/14 07:32:40;;;;;;;28.17;17.20;;;179.40;2048.00;;;;;;5071459;28;20056;-62
2020/12/14 07:35:08;;;;;;;24.45;14.93;;;179.40;2048.00;;;;;;5072046;28;20130;-63
2020/12/14 07:37:40;;;;;;;23.88;14.35;;;179.60;2022.40;;;;;;5071793;28;20021;-67
2020/12/14 07:40:10;;;;;;;27.65;16.38;;;179.30;2022.40;;;;;;5075894;28;20025;-64
2020/12/14 07:42:43;;;;;;;25.65;15.65;;;179.30;2048.00;;;;;;5057833;28;20029;-65
2020/12/14 07:45:20;;;;;;;26.35;16.30;;;154.40;2073.60;;;;;;5075004;28;20121;-62
2020/12/14 07:47:48;;;;;;;24.25;14.73;;;154.50;2073.60;;;;;;5075088;28;20463;-64
2020/12/14 07:50:18;;;;;;;26.70;15.20;;;179.20;2073.60;;;;;;5075390;28;20096;-61
2020/12/14 07:52:49;;;;;;;25.27;15.18;;;154.50;2073.60;;;;;;5056540;28;20025;-63
2020/12/14 07:55:15;;;;;;;28.88;16.40;;;154.50;2073.60;;;;;;5057228;28;20024;-62
2020/12/14 07:57:44;;;;;;;25.45;15.20;;;179.20;2073.60;;;;;;5074905;28;20029;-62
2020/12/14 08:00:13;;;;;;;24.35;16.38;;;154.40;2048.00;;;;;;5071977;28;20021;-62
2020/12/14 08:02:40;;;;;;;30.35;18.25;;;179.20;2048.00;;;;;;5074954;28;20032;-64
2020/12/14 08:05:13;;;;;;;27.48;14.98;;;179.50;2022.40;;;;;;5075030;28;20048;-63
2020/12/14 08:07:44;;;;;;;25.08;14.63;;;179.60;1971.20;;;;;;5071918;28;20021;-63
2020/12/14 08:10:10;;;;;;;26.35;15.55;;;179.60;1945.60;;;;;;5074643;28;20405;-63
2020/12/14 08:12:43;;;;;;;24.40;15.50;;;179.60;1971.20;;;;;;5073087;28;20021;-63
2020/12/14 08:15:19;;;;;;;24.42;13.73;;;154.50;2048.00;;;;;;5074686;28;20474;-63
2020/12/14 08:17:46;;;;;;;22.73;14.25;;;179.30;2022.40;;;;;;5074349;28;20060;-62
2020/12/14 08:20:32;;;;;;;24.70;15.85;;;179.20;2048.00;;;;;;5074595;28;20492;-65
2020/12/14 08:22:59;;;;;;;23.33;13.95;;;179.20;2048.00;;;;;;5074851;28;20046;-65
2020/12/14 08:25:31;;;;;;;24.55;15.63;;;179.20;2022.40;;;;;;5074290;28;20025;-63
2020/12/14 08:27:58;;;;;;;23.85;14.48;;;154.50;2073.60;;;;;;5067778;28;20053;-63
2020/12/14 08:30:28;;;;;;;24.80;14.27;;;179.20;2048.00;;;;;;5074212;28;20036;-60
2020/12/14 08:33:08;;;;;;;25.35;15.38;;;179.20;2022.40;;;;;;5074545;28;20527;-61
2020/12/14 08:35:34;;;;;;;25.00;15.27;;;179.30;2022.40;;;;;;5073761;28;20031;-60
2020/12/14 08:38:09;;;;;;;33.75;16.00;;;179.60;1996.80;;;;;;5074379;28;20372;-60
2020/12/14 08:40:35;;;;;;;25.30;15.60;;;179.60;1996.80;;;;;;5072166;28;20016;-60
2020/12/14 08:43:12;;;;;;;26.77;15.43;;;179.90;1945.60;;;;;;5074230;28;20028;-59
2020/12/14 08:46:02;;;;;;;27.38;17.48;;;179.90;1945.60;;;;;;5073960;28;20090;-65
2020/12/14 08:48:33;;;;;;;23.50;15.68;;;179.80;1971.20;;;;;;5074152;28;20378;-61
2020/12/14 08:51:22;;;;;;;24.33;14.68;;;179.50;1971.20;;;;;;5072705;28;20513;-60
2020/12/14 08:53:50;;;;;;;23.10;14.20;;;179.30;1996.80;;;;;;4973078;28;20118;-60
2020/12/14 08:56:18;;;;;;;24.33;14.52;;;179.30;2022.40;;;;;;4972883;28;20038;-61
2020/12/14 08:59:00;;;;;;;26.98;15.70;;;179.50;1996.80;;;;;;4973444;28;20507;-61
2020/12/14 09:01:30;;;;;;;27.20;14.75;;;179.20;2022.40;;;;;;4972481;28;20034;-61
2020/12/14 09:04:03;;;;;;;26.05;15.40;;;154.40;2073.60;;;;;;4973232;28;20027;-61
2020/12/14 09:06:37;;;;;;;28.45;15.98;;;154.40;2099.20;;;;;;4971899;28;20043;-60
2020/12/14 09:09:12;;;;;;;22.80;14.63;;;179.40;2048.00;;;;;;4972991;28;20031;-61
2020/12/14 09:11:41;;;;;;;25.20;15.13;;;179.60;2022.40;;;;;;4972728;28;20043;-61
2020/12/14 09:14:08;;;;;;;;;;;179.60;1996.80;;;;;;4973422;28;20050;-61
2020/12/14 09:16:34;;;;;;;23.77;13.55;;;179.50;1996.80;;;;;;4972675;28;20377;-62
2020/12/14 09:19:01;;;;;;;24.80;13.63;;;179.50;1996.80;;;;;;4972866;28;20039;-61
2020/12/14 09:21:26;;;;;;;21.92;14.25;;;179.50;1996.80;;;;;;4972085;28;20026;-61
2020/12/14 09:24:16;;;;;;;26.45;15.45;;;179.50;1996.80;;;;;;4972839;28;20037;-60
2020/12/14 09:26:42;;;;;;;26.75;14.75;;;179.70;1996.80;;;;;;4972468;28;20124;-60
2020/12/14 09:29:09;;;;;;;25.70;16.67;;;179.70;1996.80;;;;;;4972619;28;20030;-61
2020/12/14 09:31:35;;;;;;;24.63;15.32;;;179.60;1996.80;;;;;;5056419;28;20490;-62
2020/12/14 09:34:00;;;;;;;22.15;14.05;;;179.50;2022.40;;;;;;5073217;28;20039;-61
2020/12/14 09:36:26;;;;;;;26.58;16.20;;;179.20;2048.00;;;;;;5073123;28;20033;-61
2020/12/14 09:38:54;;;;;;;25.30;15.38;;;154.50;2073.60;;;;;;5073302;28;20528;-62
2020/12/14 09:41:29;;;;;;;26.23;15.20;;;179.20;2099.20;;;;;;5073166;28;20028;-61
2020/12/14 09:43:54;;;;;;;28.10;15.50;;;179.50;2048.00;;;;;;5072950;28;20086;-66
2020/12/14 09:46:23;;;;;;;25.98;15.45;;;179.40;2048.00;;;;;;5073206;28;20410;-63
2020/12/14 09:48:48;;;;;;;33.53;21.95;;;179.30;2048.00;;;;;;5073226;28;20463;-61
2020/12/14 09:51:14;;;;;;;27.85;16.27;;;179.30;2048.00;;;;;;5072955;28;20066;-61
2020/12/14 09:53:40;;;;;;;30.27;16.92;;;154.50;2073.60;;;;;;5072740;28;20025;-61
2020/12/14 09:56:05;;;;;;;30.65;17.65;;;154.50;2073.60;;;;;;5072982;28;20037;-62
2020/12/14 09:58:31;;;;;;;32.38;19.48;;;179.30;2073.60;;;;;;5073025;28;20399;-61
2020/12/14 10:00:57;;;;;;;29.55;17.90;;;154.40;2099.20;;;;;;5071957;28;20036;-61
2020/12/14 10:03:22;;;;;;;31.55;17.33;;;154.40;2099.20;;;;;;5072898;28;20078;-61
2020/12/14 10:05:48;;;;;;;28.45;16.95;;;154.40;2099.20;;;;;;5072440;28;20056;-60
2020/12/14 10:08:15;;;;;;;30.90;18.50;;;154.30;2124.80;;;;;;5072859;28;20017;-61
2020/12/14 10:10:41;;;;;;;32.00;16.73;;;154.40;2124.80;;;;;;5072598;28;20125;-61
2020/12/14 10:13:07;;;;;;;26.23;14.32;;;154.50;2124.80;;;;;;5072547;28;20377;-60
2020/12/14 10:15:33;;;;;;;30.45;15.70;;;179.30;2073.60;;;;;;5072870;28;20028;-61
2020/12/14 10:17:58;;;;;;;30.15;17.40;;;154.50;2099.20;;;;;;5072528;28;20048;-60
2020/12/14 10:20:24;;;;;;;30.20;17.08;;;179.40;2073.60;;;;;;5072549;28;20103;-60
2020/12/14 10:22:50;;;;;;;38.03;21.88;;;154.50;2124.80;;;;;;5071970;28;20489;-60
2020/12/14 10:25:15;;;;;;;36.20;20.52;;;154.20;2150.40;;;;;;5072691;28;20099;-60
2020/12/14 10:27:41;;;;;;;32.03;16.83;;;154.40;2124.80;;;;;;5072695;28;20025;-61
2020/12/14 10:30:07;;;;;;;28.67;16.70;;;179.20;2099.20;;;;;;5072597;28;20032;-62
2020/12/14 10:32:32;;;;;;;39.95;23.80;;;179.50;2073.60;;;;;;5072172;28;20385;-61
2020/12/14 10:34:58;;;;;;;28.65;16.52;;;179.40;2099.20;;;;;;5072133;28;20433;-61
2020/12/14 10:37:24;;;;;;;24.45;14.75;;;179.30;2099.20;;;;;;5072138;28;20021;-63
2020/12/14 10:39:50;;;;;;;27.40;15.98;;;179.50;2073.60;;;;;;5072110;28;20021;-61
2020/12/14 10:42:15;;;;;;;28.75;16.42;;;179.60;2073.60;;;;;;5072404;28;20021;-61
2020/12/14 10:44:41;;;;;;;39.53;20.10;;;179.20;2124.80;;;;;;5072371;28;20024;-61
2020/12/14 10:47:07;;;;;;;31.27;17.02;;;179.40;2124.80;;;;;;5072037;28;20094;-61
2020/12/14 10:49:33;;;;;;;25.17;14.60;;;179.70;2073.60;;;;;;5072081;28;20475;-61
2020/12/14 10:52:02;;;;;;;26.85;15.35;;;179.30;2073.60;;;;;;5071935;28;20093;-61
2020/12/14 10:54:28;;;;;;;32.33;15.43;;;179.40;2073.60;;;;;;5072375;28;20024;-61
2020/12/14 10:56:53;;;;;;;26.42;13.70;;;154.50;2099.20;;;;;;5072007;28;20029;-61
2020/12/14 10:59:19;;;;;;;26.83;15.40;;;154.40;2124.80;;;;;;5072177;28;20387;-61
2020/12/14 11:01:50;;;;;;;22.58;13.80;;;154.40;2150.40;;;;;;5071851;28;20028;-61
2020/12/14 11:04:15;;;;;;;27.63;14.40;;;179.20;2099.20;;;;;;5071993;28;20036;-61
2020/12/14 11:06:41;;;;;;;24.40;13.68;;;154.40;2150.40;;;;;;5053626;28;20490;-61
2020/12/14 11:09:07;;;;;;;24.05;14.13;;;179.20;2124.80;;;;;;5071984;28;20071;-61
2020/12/14 11:11:32;;;;;;;24.92;14.60;;;179.20;2099.20;;;;;;5071828;28;20078;-63
2020/12/14 11:14:03;;;;;;;26.40;14.20;;;179.20;2099.20;;;;;;5074119;28;20052;-60
2020/12/14 11:16:30;;;;;;;26.98;15.38;;;179.20;2099.20;;;;;;5075108;28;20060;-62
2020/12/14 11:18:57;;;;;;;28.13;16.27;;;179.30;2099.20;;;;;;5076035;28;20021;-61
2020/12/14 11:21:23;;;;;;;27.80;14.05;;;179.50;2073.60;;;;;;5075752;28;20024;-62
2020/12/14 11:23:48;;;;;;;25.05;14.05;;;179.40;2073.60;;;;;;5075647;28;20027;-61
2020/12/14 11:26:14;;;;;;;23.90;14.23;;;179.40;2048.00;;;;;;5075558;28;20020;-61
2020/12/14 11:28:40;;;;;;;22.98;13.23;;;179.40;2048.00;;;;;;5075501;28;20055;-61
2020/12/14 11:31:07;;;;;;;23.98;13.70;;;179.30;2048.00;;;;;;5075356;28;20048;-61
2020/12/14 11:33:34;;;;;;;24.50;13.85;;;154.50;2099.20;;;;;;5075712;28;20026;-61
2020/12/14 11:36:00;;;;;;;21.92;12.65;;;179.30;2073.60;;;;;;5074967;28;20040;-61
2020/12/14 11:38:26;;;;;;;22.88;15.88;;;179.30;2048.00;;;;;;5075244;28;20024;-61
2020/12/14 11:40:52;;;;;;;26.67;17.20;;;179.30;2048.00;;;;;;5075280;28;20021;-60
2020/12/14 11:43:17;;;;;;;29.10;19.02;;;179.20;2073.60;;;;;;5075246;28;20064;-61
2020/12/14 11:45:45;;;;;;;23.75;16.05;;;179.20;2073.60;;;;;;5057715;28;20032;-60
2020/12/14 11:48:11;;;;;;;20.50;12.65;;;179.60;2022.40;;;;;;5075141;28;20032;-62
2020/12/14 11:50:37;;;;;;;21.58;12.30;;;179.30;2048.00;;;;;;5075247;28;20028;-60
2020/12/14 11:53:02;;;;;;;24.63;14.38;;;154.30;2099.20;;;;;;5075870;28;20400;-61
2020/12/14 11:55:28;;;;;;;22.27;13.80;;;154.50;2099.20;;;;;;5056996;28;20386;-60
2020/12/14 11:57:54;;;;;;;22.60;14.18;;;179.30;2073.60;;;;;;5074960;28;20029;-61
2020/12/14 12:00:20;;;;;;;23.90;14.82;;;179.30;2073.60;;;;;;5075215;28;20071;-61
2020/12/14 12:02:45;;;;;;;18.85;10.60;;;179.80;2022.40;;;;;;5074985;28;20048;-60
2020/12/14 12:05:11;;;;;;;21.55;12.98;;;179.70;1996.80;;;;;;5074187;28;20050;-61